sensor_id;sensor_type;location;lat;lon;timestamp;temperature;humidity
25248;DHT22;13191;47.472;11.214;2023-01-24T00:00:48;-1.80;99.90
25248;DHT22;13191;47.472;11.214;2023-01-24T00:03:13;-1.80;99.90
25248;DHT22;13191;47.472;11.214;2023-01-24T00:05:41;-1.90;99.90
25248;DHT22;13191;47.472;11.214;2023-01-24T00:08:07;-1.80;99.90
25248;DHT22;13191;47.472;11.214;2023-01-24T00:10:32;-1.90;99.90
25248;DHT22;13191;47.472;11.214;2023-01-24T00:12:58;-1.90;99.90
25248;DHT22;13191;47.472;11.214;2023-01-24T00:15:23;-1.90;99.90
25248;DHT22;13191;47.472;11.214;2023-01-24T00:17:49;-2.00;99.90
25248;DHT22;13191;47.472;11.214;2023-01-24T00:20:15;-2.00;99.90
25248;DHT22;13191;47.472;11.214;2023-01-24T00:22:40;-2.00;99.90
25248;DHT22;13191;47.472;11.214;2023-01-24T00:25:06;-2.00;99.90
25248;DHT22;13191;47.472;11.214;2023-01-24T00:27:31;-2.00;99.90
25248;DHT22;13191;47.472;11.214;2023-01-24T00:29:57;-2.00;99.90
25248;DHT22;13191;47.472;11.214;2023-01-24T00:32:22;-2.00;99.90
25248;DHT22;13191;47.472;11.214;2023-01-24T00:34:48;-1.90;99.90
25248;DHT22;13191;47.472;11.214;2023-01-24T00:37:13;-1.90;99.90
25248;DHT22;13191;47.472;11.214;2023-01-24T00:39:39;-1.90;99.90
25248;DHT22;13191;47.472;11.214;2023-01-24T00:42:04;-1.90;99.90
25248;DHT22;13191;47.472;11.214;2023-01-24T00:44:30;-1.90;99.90
25248;DHT22;13191;47.472;11.214;2023-01-24T00:46:55;-1.90;99.90
25248;DHT22;13191;47.472;11.214;2023-01-24T00:49:20;-1.90;99.90
25248;DHT22;13191;47.472;11.214;2023-01-24T00:51:46;-1.90;99.90
25248;DHT22;13191;47.472;11.214;2023-01-24T00:54:11;-1.90;99.90
25248;DHT22;13191;47.472;11.214;2023-01-24T00:56:37;-1.90;99.90
25248;DHT22;13191;47.472;11.214;2023-01-24T00:59:02;-1.90;99.90
25248;DHT22;13191;47.472;11.214;2023-01-24T01:01:28;-1.90;99.90
25248;DHT22;13191;47.472;11.214;2023-01-24T01:03:54;-1.90;99.90
25248;DHT22;13191;47.472;11.214;2023-01-24T01:06:19;-1.90;99.90
25248;DHT22;13191;47.472;11.214;2023-01-24T01:08:45;-1.90;99.90
25248;DHT22;13191;47.472;11.214;2023-01-24T01:11:10;-1.90;99.90
25248;DHT22;13191;47.472;11.214;2023-01-24T01:13:36;-1.90;99.90
25248;DHT22;13191;47.472;11.214;2023-01-24T01:16:02;-1.90;99.90
25248;DHT22;13191;47.472;11.214;2023-01-24T01:18:28;-1.90;99.90
25248;DHT22;13191;47.472;11.214;2023-01-24T01:20:53;-1.90;99.90
25248;DHT22;13191;47.472;11.214;2023-01-24T01:23:19;-1.80;99.90
25248;DHT22;13191;47.472;11.214;2023-01-24T01:25:44;-1.90;99.90
25248;DHT22;13191;47.472;11.214;2023-01-24T01:28:10;-1.90;99.90
25248;DHT22;13191;47.472;11.214;2023-01-24T01:30:35;-1.80;99.90
25248;DHT22;13191;47.472;11.214;2023-01-24T01:33:01;-1.80;99.90
25248;DHT22;13191;47.472;11.214;2023-01-24T01:35:26;-1.80;99.90
25248;DHT22;13191;47.472;11.214;2023-01-24T01:37:52;-1.70;99.90
25248;DHT22;13191;47.472;11.214;2023-01-24T01:40:17;-1.80;99.90
25248;DHT22;13191;47.472;11.214;2023-01-24T01:42:53;-1.70;99.90
25248;DHT22;13191;47.472;11.214;2023-01-24T01:48:12;-1.80;99.90
25248;DHT22;13191;47.472;11.214;2023-01-24T01:50:39;-1.80;99.90
25248;DHT22;13191;47.472;11.214;2023-01-24T01:53:06;-1.80;99.90
25248;DHT22;13191;47.472;11.214;2023-01-24T01:55:33;-1.80;99.90
25248;DHT22;13191;47.472;11.214;2023-01-24T01:57:58;-1.80;99.90
25248;DHT22;13191;47.472;11.214;2023-01-24T02:00:25;-1.80;99.90
25248;DHT22;13191;47.472;11.214;2023-01-24T02:02:57;-1.80;99.90
25248;DHT22;13191;47.472;11.214;2023-01-24T02:05:44;-1.80;99.90
25248;DHT22;13191;47.472;11.214;2023-01-24T02:08:10;-1.90;99.90
25248;DHT22;13191;47.472;11.214;2023-01-24T02:10:38;-1.90;99.90
25248;DHT22;13191;47.472;11.214;2023-01-24T02:13:22;-1.80;99.90
25248;DHT22;13191;47.472;11.214;2023-01-24T02:15:49;-1.80;99.90
25248;DHT22;13191;47.472;11.214;2023-01-24T02:18:32;-1.80;99.90
25248;DHT22;13191;47.472;11.214;2023-01-24T02:20:58;-1.80;99.90
25248;DHT22;13191;47.472;11.214;2023-01-24T02:23:37;-1.80;99.90
25248;DHT22;13191;47.472;11.214;2023-01-24T02:26:11;-1.80;99.90
25248;DHT22;13191;47.472;11.214;2023-01-24T02:28:37;-1.80;99.90
25248;DHT22;13191;47.472;11.214;2023-01-24T02:31:04;-1.80;99.90
25248;DHT22;13191;47.472;11.214;2023-01-24T02:33:30;-1.90;99.90
25248;DHT22;13191;47.472;11.214;2023-01-24T02:38:36;-2.00;99.90
25248;DHT22;13191;47.472;11.214;2023-01-24T02:41:02;-2.00;99.90
25248;DHT22;13191;47.472;11.214;2023-01-24T02:43:33;-2.10;99.90
25248;DHT22;13191;47.472;11.214;2023-01-24T02:45:59;-2.10;99.90
25248;DHT22;13191;47.472;11.214;2023-01-24T02:48:24;-2.10;99.90
25248;DHT22;13191;47.472;11.214;2023-01-24T02:50:50;-2.10;99.90
25248;DHT22;13191;47.472;11.214;2023-01-24T02:53:34;-2.10;99.90
25248;DHT22;13191;47.472;11.214;2023-01-24T02:56:01;-2.10;99.90
25248;DHT22;13191;47.472;11.214;2023-01-24T02:58:46;-2.10;99.90
25248;DHT22;13191;47.472;11.214;2023-01-24T03:01:12;-2.10;99.90
25248;DHT22;13191;47.472;11.214;2023-01-24T03:03:40;-2.20;99.90
25248;DHT22;13191;47.472;11.214;2023-01-24T03:06:06;-2.20;99.90
25248;DHT22;13191;47.472;11.214;2023-01-24T03:08:32;-2.20;99.90
25248;DHT22;13191;47.472;11.214;2023-01-24T03:10:58;-2.20;99.90
25248;DHT22;13191;47.472;11.214;2023-01-24T03:13:24;-2.10;99.90
25248;DHT22;13191;47.472;11.214;2023-01-24T03:16:08;-2.20;99.90
25248;DHT22;13191;47.472;11.214;2023-01-24T03:18:53;-2.20;99.90
25248;DHT22;13191;47.472;11.214;2023-01-24T03:21:37;-2.20;99.90
25248;DHT22;13191;47.472;11.214;2023-01-24T03:24:21;-2.20;99.90
25248;DHT22;13191;47.472;11.214;2023-01-24T03:27:06;-2.20;99.90
25248;DHT22;13191;47.472;11.214;2023-01-24T03:29:50;-2.30;99.90
25248;DHT22;13191;47.472;11.214;2023-01-24T03:32:34;-2.30;99.90
25248;DHT22;13191;47.472;11.214;2023-01-24T03:35:18;-2.30;99.90
25248;DHT22;13191;47.472;11.214;2023-01-24T03:37:44;-2.30;99.90
25248;DHT22;13191;47.472;11.214;2023-01-24T03:40:28;-2.40;99.90
25248;DHT22;13191;47.472;11.214;2023-01-24T03:42:53;-2.30;99.90
25248;DHT22;13191;47.472;11.214;2023-01-24T03:45:23;-2.40;99.90
25248;DHT22;13191;47.472;11.214;2023-01-24T03:47:50;-2.30;99.90
25248;DHT22;13191;47.472;11.214;2023-01-24T03:53:29;-2.30;99.90
25248;DHT22;13191;47.472;11.214;2023-01-24T03:55:56;-2.30;99.90
25248;DHT22;13191;47.472;11.214;2023-01-24T03:58:22;-2.30;99.90
25248;DHT22;13191;47.472;11.214;2023-01-24T04:00:48;-2.30;99.90
25248;DHT22;13191;47.472;11.214;2023-01-24T04:03:13;-2.40;99.90
25248;DHT22;13191;47.472;11.214;2023-01-24T04:05:39;-2.40;99.90
25248;DHT22;13191;47.472;11.214;2023-01-24T04:08:04;-2.40;99.90
25248;DHT22;13191;47.472;11.214;2023-01-24T04:10:30;-2.50;99.90
25248;DHT22;13191;47.472;11.214;2023-01-24T04:12:56;-2.50;99.90
25248;DHT22;13191;47.472;11.214;2023-01-24T04:15:22;-2.60;99.90
25248;DHT22;13191;47.472;11.214;2023-01-24T04:17:48;-2.60;99.90
25248;DHT22;13191;47.472;11.214;2023-01-24T04:20:14;-2.60;99.90
25248;DHT22;13191;47.472;11.214;2023-01-24T04:22:39;-2.60;99.90
25248;DHT22;13191;47.472;11.214;2023-01-24T04:25:05;-2.70;99.90
25248;DHT22;13191;47.472;11.214;2023-01-24T04:27:30;-2.70;99.90
25248;DHT22;13191;47.472;11.214;2023-01-24T04:29:56;-2.80;99.90
25248;DHT22;13191;47.472;11.214;2023-01-24T04:32:21;-2.90;99.90
25248;DHT22;13191;47.472;11.214;2023-01-24T04:34:47;-3.00;99.90
25248;DHT22;13191;47.472;11.214;2023-01-24T04:37:12;-3.10;99.90
25248;DHT22;13191;47.472;11.214;2023-01-24T04:39:38;-3.10;99.90
25248;DHT22;13191;47.472;11.214;2023-01-24T04:42:03;-3.10;99.90
25248;DHT22;13191;47.472;11.214;2023-01-24T04:44:28;-3.20;99.90
25248;DHT22;13191;47.472;11.214;2023-01-24T04:46:54;-3.20;99.90
25248;DHT22;13191;47.472;11.214;2023-01-24T04:49:19;-3.20;99.90
25248;DHT22;13191;47.472;11.214;2023-01-24T04:51:48;-3.20;99.90
25248;DHT22;13191;47.472;11.214;2023-01-24T04:54:14;-3.30;99.90
25248;DHT22;13191;47.472;11.214;2023-01-24T04:56:40;-3.40;99.90
25248;DHT22;13191;47.472;11.214;2023-01-24T04:59:05;-3.50;99.90
25248;DHT22;13191;47.472;11.214;2023-01-24T05:01:31;-3.40;99.90
25248;DHT22;13191;47.472;11.214;2023-01-24T05:03:56;-3.40;99.90
25248;DHT22;13191;47.472;11.214;2023-01-24T05:08:50;-3.70;99.90
25248;DHT22;13191;47.472;11.214;2023-01-24T05:11:15;-3.70;99.90
25248;DHT22;13191;47.472;11.214;2023-01-24T05:13:41;-3.80;99.90
25248;DHT22;13191;47.472;11.214;2023-01-24T05:16:06;-3.80;99.90
25248;DHT22;13191;47.472;11.214;2023-01-24T05:18:31;-3.80;99.90
25248;DHT22;13191;47.472;11.214;2023-01-24T05:21:03;-3.80;99.90
25248;DHT22;13191;47.472;11.214;2023-01-24T05:23:29;-3.80;99.90
25248;DHT22;13191;47.472;11.214;2023-01-24T05:25:57;-3.80;99.90
25248;DHT22;13191;47.472;11.214;2023-01-24T05:28:23;-3.90;99.90
25248;DHT22;13191;47.472;11.214;2023-01-24T05:30:48;-3.90;99.90
25248;DHT22;13191;47.472;11.214;2023-01-24T05:33:14;-4.00;99.90
25248;DHT22;13191;47.472;11.214;2023-01-24T05:35:39;-4.10;99.90
25248;DHT22;13191;47.472;11.214;2023-01-24T05:38:05;-4.10;99.90
25248;DHT22;13191;47.472;11.214;2023-01-24T05:40:31;-4.20;99.90
25248;DHT22;13191;47.472;11.214;2023-01-24T05:42:56;-4.20;99.90
25248;DHT22;13191;47.472;11.214;2023-01-24T05:45:22;-4.20;99.90
25248;DHT22;13191;47.472;11.214;2023-01-24T05:47:47;-4.20;99.90
25248;DHT22;13191;47.472;11.214;2023-01-24T05:50:13;-4.30;99.90
25248;DHT22;13191;47.472;11.214;2023-01-24T05:52:38;-4.30;99.90
25248;DHT22;13191;47.472;11.214;2023-01-24T05:55:04;-4.30;99.90
25248;DHT22;13191;47.472;11.214;2023-01-24T05:57:29;-4.30;99.90
25248;DHT22;13191;47.472;11.214;2023-01-24T05:59:55;-4.30;99.90
25248;DHT22;13191;47.472;11.214;2023-01-24T06:02:20;-4.20;99.90
25248;DHT22;13191;47.472;11.214;2023-01-24T06:04:46;-4.30;99.90
25248;DHT22;13191;47.472;11.214;2023-01-24T06:07:12;-4.40;99.90
25248;DHT22;13191;47.472;11.214;2023-01-24T06:09:37;-4.50;99.90
25248;DHT22;13191;47.472;11.214;2023-01-24T06:14:30;-4.90;99.90
25248;DHT22;13191;47.472;11.214;2023-01-24T06:16:55;-5.00;99.90
25248;DHT22;13191;47.472;11.214;2023-01-24T06:19:21;-5.00;99.90
25248;DHT22;13191;47.472;11.214;2023-01-24T06:26:41;-5.00;99.90
25248;DHT22;13191;47.472;11.214;2023-01-24T06:29:08;-5.10;99.90
25248;DHT22;13191;47.472;11.214;2023-01-24T06:31:43;-5.20;99.90
25248;DHT22;13191;47.472;11.214;2023-01-24T06:34:27;-5.20;99.90
25248;DHT22;13191;47.472;11.214;2023-01-24T06:39:45;-5.20;99.90
25248;DHT22;13191;47.472;11.214;2023-01-24T06:42:15;-5.20;99.90
25248;DHT22;13191;47.472;11.214;2023-01-24T06:44:40;-5.30;99.90
25248;DHT22;13191;47.472;11.214;2023-01-24T06:47:08;-5.40;99.90
25248;DHT22;13191;47.472;11.214;2023-01-24T06:49:34;-5.40;99.90
25248;DHT22;13191;47.472;11.214;2023-01-24T06:54:41;-5.70;99.90
25248;DHT22;13191;47.472;11.214;2023-01-24T06:57:06;-5.70;99.90
25248;DHT22;13191;47.472;11.214;2023-01-24T06:59:32;-5.60;99.90
25248;DHT22;13191;47.472;11.214;2023-01-24T07:01:57;-5.60;99.90
25248;DHT22;13191;47.472;11.214;2023-01-24T07:04:23;-5.60;99.90
25248;DHT22;13191;47.472;11.214;2023-01-24T07:06:48;-5.60;99.90
25248;DHT22;13191;47.472;11.214;2023-01-24T07:09:20;-5.50;99.90
25248;DHT22;13191;47.472;11.214;2023-01-24T07:11:46;-5.60;99.90
25248;DHT22;13191;47.472;11.214;2023-01-24T07:14:15;-5.50;99.90
25248;DHT22;13191;47.472;11.214;2023-01-24T07:16:40;-5.50;99.90
25248;DHT22;13191;47.472;11.214;2023-01-24T07:19:07;-5.60;99.90
25248;DHT22;13191;47.472;11.214;2023-01-24T07:21:33;-5.70;99.90
25248;DHT22;13191;47.472;11.214;2023-01-24T07:24:01;-5.80;99.90
25248;DHT22;13191;47.472;11.214;2023-01-24T07:26:26;-5.90;99.90
25248;DHT22;13191;47.472;11.214;2023-01-24T07:28:52;-5.80;99.90
25248;DHT22;13191;47.472;11.214;2023-01-24T07:31:17;-6.00;99.90
25248;DHT22;13191;47.472;11.214;2023-01-24T07:33:43;-5.90;99.90
25248;DHT22;13191;47.472;11.214;2023-01-24T07:36:12;-5.90;99.90
25248;DHT22;13191;47.472;11.214;2023-01-24T07:38:38;-5.90;99.90
25248;DHT22;13191;47.472;11.214;2023-01-24T07:41:07;-5.90;99.90
25248;DHT22;13191;47.472;11.214;2023-01-24T07:43:33;-5.90;99.90
25248;DHT22;13191;47.472;11.214;2023-01-24T07:45:58;-5.80;99.90
25248;DHT22;13191;47.472;11.214;2023-01-24T07:48:23;-5.80;99.90
25248;DHT22;13191;47.472;11.214;2023-01-24T07:50:49;-5.70;99.90
25248;DHT22;13191;47.472;11.214;2023-01-24T07:53:14;-5.80;99.90
25248;DHT22;13191;47.472;11.214;2023-01-24T07:55:40;-5.70;99.90
25248;DHT22;13191;47.472;11.214;2023-01-24T07:58:05;-5.70;99.90
25248;DHT22;13191;47.472;11.214;2023-01-24T08:00:31;-5.70;99.90
25248;DHT22;13191;47.472;11.214;2023-01-24T08:02:56;-5.80;99.90
25248;DHT22;13191;47.472;11.214;2023-01-24T08:05:22;-5.80;99.90
25248;DHT22;13191;47.472;11.214;2023-01-24T08:07:47;-5.80;99.90
25248;DHT22;13191;47.472;11.214;2023-01-24T08:10:13;-5.80;99.90
25248;DHT22;13191;47.472;11.214;2023-01-24T08:12:38;-5.80;99.90
25248;DHT22;13191;47.472;11.214;2023-01-24T08:15:04;-5.80;99.90
25248;DHT22;13191;47.472;11.214;2023-01-24T08:17:31;-5.70;99.90
25248;DHT22;13191;47.472;11.214;2023-01-24T08:19:57;-5.70;99.90
25248;DHT22;13191;47.472;11.214;2023-01-24T08:22:23;-5.60;99.90
25248;DHT22;13191;47.472;11.214;2023-01-24T08:24:49;-5.60;99.90
25248;DHT22;13191;47.472;11.214;2023-01-24T08:27:14;-5.60;99.90
25248;DHT22;13191;47.472;11.214;2023-01-24T08:29:39;-5.50;99.90
25248;DHT22;13191;47.472;11.214;2023-01-24T08:32:05;-5.50;99.90
25248;DHT22;13191;47.472;11.214;2023-01-24T08:34:30;-5.40;99.90
25248;DHT22;13191;47.472;11.214;2023-01-24T08:36:56;-5.30;99.90
25248;DHT22;13191;47.472;11.214;2023-01-24T08:39:21;-5.10;99.90
25248;DHT22;13191;47.472;11.214;2023-01-24T08:41:47;-5.00;99.90
25248;DHT22;13191;47.472;11.214;2023-01-24T08:44:13;-4.90;99.90
25248;DHT22;13191;47.472;11.214;2023-01-24T08:46:39;-4.80;99.90
25248;DHT22;13191;47.472;11.214;2023-01-24T08:49:04;-4.70;99.90
25248;DHT22;13191;47.472;11.214;2023-01-24T08:51:30;-4.60;99.90
25248;DHT22;13191;47.472;11.214;2023-01-24T08:53:55;-4.40;99.90
25248;DHT22;13191;47.472;11.214;2023-01-24T08:56:21;-4.30;99.90
25248;DHT22;13191;47.472;11.214;2023-01-24T08:58:46;-4.20;99.90
25248;DHT22;13191;47.472;11.214;2023-01-24T09:01:12;-4.10;99.90
25248;DHT22;13191;47.472;11.214;2023-01-24T09:03:37;-4.00;99.90
25248;DHT22;13191;47.472;11.214;2023-01-24T09:06:03;-4.00;99.90
25248;DHT22;13191;47.472;11.214;2023-01-24T09:08:29;-3.90;99.90
25248;DHT22;13191;47.472;11.214;2023-01-24T09:10:57;-3.80;99.90
25248;DHT22;13191;47.472;11.214;2023-01-24T09:13:23;-3.70;99.90
25248;DHT22;13191;47.472;11.214;2023-01-24T09:15:48;-3.60;99.90
25248;DHT22;13191;47.472;11.214;2023-01-24T09:18:13;-3.50;99.90
25248;DHT22;13191;47.472;11.214;2023-01-24T09:20:39;-3.50;99.90
25248;DHT22;13191;47.472;11.214;2023-01-24T09:23:08;-3.40;99.90
25248;DHT22;13191;47.472;11.214;2023-01-24T09:25:34;-3.30;99.90
25248;DHT22;13191;47.472;11.214;2023-01-24T09:28:00;-3.20;99.90
25248;DHT22;13191;47.472;11.214;2023-01-24T09:30:25;-3.10;99.90
25248;DHT22;13191;47.472;11.214;2023-01-24T09:32:51;-3.00;99.90
25248;DHT22;13191;47.472;11.214;2023-01-24T09:35:16;-2.90;99.90
25248;DHT22;13191;47.472;11.214;2023-01-24T09:37:42;-2.70;99.90
25248;DHT22;13191;47.472;11.214;2023-01-24T09:45:42;-2.40;99.90
25248;DHT22;13191;47.472;11.214;2023-01-24T09:50:41;-2.20;99.90
25248;DHT22;13191;47.472;11.214;2023-01-24T09:53:12;-2.10;99.90
25248;DHT22;13191;47.472;11.214;2023-01-24T09:55:42;-1.90;99.90
25248;DHT22;13191;47.472;11.214;2023-01-24T10:00:37;-1.60;99.90
25248;DHT22;13191;47.472;11.214;2023-01-24T10:03:05;-1.50;99.90
25248;DHT22;13191;47.472;11.214;2023-01-24T10:05:35;-1.50;99.90
25248;DHT22;13191;47.472;11.214;2023-01-24T10:13:17;-1.30;99.90
25248;DHT22;13191;47.472;11.214;2023-01-24T10:25:51;-0.80;99.90
25248;DHT22;13191;47.472;11.214;2023-01-24T10:28:19;-0.70;99.90
25248;DHT22;13191;47.472;11.214;2023-01-24T10:33:15;-0.60;99.90
25248;DHT22;13191;47.472;11.214;2023-01-24T10:38:16;-0.50;99.90
25248;DHT22;13191;47.472;11.214;2023-01-24T10:40:50;-0.50;99.90
25248;DHT22;13191;47.472;11.214;2023-01-24T10:43:15;-0.40;99.90
25248;DHT22;13191;47.472;11.214;2023-01-24T10:45:52;-0.30;99.90
25248;DHT22;13191;47.472;11.214;2023-01-24T10:50:50;-0.20;99.90
25248;DHT22;13191;47.472;11.214;2023-01-24T10:53:23;-0.10;99.90
25248;DHT22;13191;47.472;11.214;2023-01-24T10:55:56;-0.10;99.90
25248;DHT22;13191;47.472;11.214;2023-01-24T11:01:04;0.00;99.90
25248;DHT22;13191;47.472;11.214;2023-01-24T11:03:31;0.00;99.90
25248;DHT22;13191;47.472;11.214;2023-01-24T11:06:00;0.00;99.90
25248;DHT22;13191;47.472;11.214;2023-01-24T11:08:35;0.10;99.90
25248;DHT22;13191;47.472;11.214;2023-01-24T11:11:02;0.10;99.90
25248;DHT22;13191;47.472;11.214;2023-01-24T11:16:00;0.20;99.90
25248;DHT22;13191;47.472;11.214;2023-01-24T11:18:27;0.30;99.90
25248;DHT22;13191;47.472;11.214;2023-01-24T11:21:10;0.40;99.90
25248;DHT22;13191;47.472;11.214;2023-01-24T11:23:35;0.40;99.90
25248;DHT22;13191;47.472;11.214;2023-01-24T11:26:01;0.40;99.90
25248;DHT22;13191;47.472;11.214;2023-01-24T11:28:28;0.40;99.90
25248;DHT22;13191;47.472;11.214;2023-01-24T11:30:54;0.50;99.90
25248;DHT22;13191;47.472;11.214;2023-01-24T11:33:42;0.50;99.90
25248;DHT22;13191;47.472;11.214;2023-01-24T11:36:18;0.60;99.90
25248;DHT22;13191;47.472;11.214;2023-01-24T11:38:47;0.70;99.90
25248;DHT22;13191;47.472;11.214;2023-01-24T11:41:15;0.70;99.90
25248;DHT22;13191;47.472;11.214;2023-01-24T11:46:19;0.90;99.90
25248;DHT22;13191;47.472;11.214;2023-01-24T11:48:56;1.00;99.90
25248;DHT22;13191;47.472;11.214;2023-01-24T11:51:35;1.00;99.90
25248;DHT22;13191;47.472;11.214;2023-01-24T11:54:15;1.10;99.90
25248;DHT22;13191;47.472;11.214;2023-01-24T11:59:26;1.30;99.90
25248;DHT22;13191;47.472;11.214;2023-01-24T12:04:59;1.60;99.90
25248;DHT22;13191;47.472;11.214;2023-01-24T12:07:47;1.70;99.90
25248;DHT22;13191;47.472;11.214;2023-01-24T12:10:25;1.80;99.90
25248;DHT22;13191;47.472;11.214;2023-01-24T12:12:56;1.90;99.90
25248;DHT22;13191;47.472;11.214;2023-01-24T12:15:35;2.10;99.90
25248;DHT22;13191;47.472;11.214;2023-01-24T12:20:34;2.30;99.90
25248;DHT22;13191;47.472;11.214;2023-01-24T12:23:10;2.30;99.90
25248;DHT22;13191;47.472;11.214;2023-01-24T12:25:37;2.40;99.90
25248;DHT22;13191;47.472;11.214;2023-01-24T12:28:05;2.40;99.90
25248;DHT22;13191;47.472;11.214;2023-01-24T12:30:31;2.50;99.90
25248;DHT22;13191;47.472;11.214;2023-01-24T12:35:25;2.80;99.90
25248;DHT22;13191;47.472;11.214;2023-01-24T12:40:44;2.90;99.90
25248;DHT22;13191;47.472;11.214;2023-01-24T12:48:16;3.10;99.90
25248;DHT22;13191;47.472;11.214;2023-01-24T12:55:52;3.20;99.90
25248;DHT22;13191;47.472;11.214;2023-01-24T12:58:34;3.20;99.90
25248;DHT22;13191;47.472;11.214;2023-01-24T13:03:44;3.20;99.90
25248;DHT22;13191;47.472;11.214;2023-01-24T13:11:38;3.30;99.90
25248;DHT22;13191;47.472;11.214;2023-01-24T13:14:12;3.30;99.90
25248;DHT22;13191;47.472;11.214;2023-01-24T13:17:21;3.40;99.90
25248;DHT22;13191;47.472;11.214;2023-01-24T13:27:24;3.60;99.90
25248;DHT22;13191;47.472;11.214;2023-01-24T13:29:58;3.50;99.90
25248;DHT22;13191;47.472;11.214;2023-01-24T13:32:29;3.60;99.90
25248;DHT22;13191;47.472;11.214;2023-01-24T13:34:56;3.70;99.90
25248;DHT22;13191;47.472;11.214;2023-01-24T13:37:24;3.70;99.90
25248;DHT22;13191;47.472;11.214;2023-01-24T13:39:58;3.80;99.90
25248;DHT22;13191;47.472;11.214;2023-01-24T13:42:31;3.90;99.90
25248;DHT22;13191;47.472;11.214;2023-01-24T13:44:57;4.10;99.90
25248;DHT22;13191;47.472;11.214;2023-01-24T13:47:23;4.30;99.90
25248;DHT22;13191;47.472;11.214;2023-01-24T13:54:56;4.70;99.90
25248;DHT22;13191;47.472;11.214;2023-01-24T13:57:23;4.90;99.90
25248;DHT22;13191;47.472;11.214;2023-01-24T14:02:41;4.90;99.90
25248;DHT22;13191;47.472;11.214;2023-01-24T14:07:51;4.80;99.90
25248;DHT22;13191;47.472;11.214;2023-01-24T14:10:17;4.70;99.90
25248;DHT22;13191;47.472;11.214;2023-01-24T14:12:51;4.60;99.90
25248;DHT22;13191;47.472;11.214;2023-01-24T14:15:25;4.50;99.90
25248;DHT22;13191;47.472;11.214;2023-01-24T14:17:51;4.40;99.90
25248;DHT22;13191;47.472;11.214;2023-01-24T14:20:29;4.30;99.90
25248;DHT22;13191;47.472;11.214;2023-01-24T14:22:59;4.30;99.90
25248;DHT22;13191;47.472;11.214;2023-01-24T14:28:16;4.10;99.90
25248;DHT22;13191;47.472;11.214;2023-01-24T14:30:47;4.10;99.90
25248;DHT22;13191;47.472;11.214;2023-01-24T14:33:21;4.00;99.90
25248;DHT22;13191;47.472;11.214;2023-01-24T14:35:51;4.00;99.90
25248;DHT22;13191;47.472;11.214;2023-01-24T14:38:17;4.00;99.90
25248;DHT22;13191;47.472;11.214;2023-01-24T14:40:44;3.80;99.90
25248;DHT22;13191;47.472;11.214;2023-01-24T14:43:12;3.70;99.90
25248;DHT22;13191;47.472;11.214;2023-01-24T14:45:38;3.60;99.90
25248;DHT22;13191;47.472;11.214;2023-01-24T14:48:08;3.40;99.90
25248;DHT22;13191;47.472;11.214;2023-01-24T14:50:35;3.40;99.90
25248;DHT22;13191;47.472;11.214;2023-01-24T14:53:01;3.40;99.90
25248;DHT22;13191;47.472;11.214;2023-01-24T14:55:37;3.50;99.90
25248;DHT22;13191;47.472;11.214;2023-01-24T14:58:14;3.50;99.90
25248;DHT22;13191;47.472;11.214;2023-01-24T15:00:41;3.70;99.90
25248;DHT22;13191;47.472;11.214;2023-01-24T15:03:06;3.70;99.90
25248;DHT22;13191;47.472;11.214;2023-01-24T15:05:37;3.70;99.90
25248;DHT22;13191;47.472;11.214;2023-01-24T15:08:04;3.40;99.90
25248;DHT22;13191;47.472;11.214;2023-01-24T15:10:31;3.40;99.90
25248;DHT22;13191;47.472;11.214;2023-01-24T15:12:58;3.50;99.90
25248;DHT22;13191;47.472;11.214;2023-01-24T15:15:25;3.50;99.90
25248;DHT22;13191;47.472;11.214;2023-01-24T15:17:50;3.40;99.90
25248;DHT22;13191;47.472;11.214;2023-01-24T15:20:19;3.40;99.90
25248;DHT22;13191;47.472;11.214;2023-01-24T15:22:49;3.40;99.90
25248;DHT22;13191;47.472;11.214;2023-01-24T15:27:45;3.00;99.90
25248;DHT22;13191;47.472;11.214;2023-01-24T15:32:45;2.70;99.90
25248;DHT22;13191;47.472;11.214;2023-01-24T15:37:42;2.50;99.90
25248;DHT22;13191;47.472;11.214;2023-01-24T15:40:16;2.40;99.90
25248;DHT22;13191;47.472;11.214;2023-01-24T15:42:45;2.30;99.90
25248;DHT22;13191;47.472;11.214;2023-01-24T15:45:30;2.20;99.90
25248;DHT22;13191;47.472;11.214;2023-01-24T15:51:01;1.90;99.90
25248;DHT22;13191;47.472;11.214;2023-01-24T15:53:36;1.80;99.90
25248;DHT22;13191;47.472;11.214;2023-01-24T15:56:03;1.70;99.90
25248;DHT22;13191;47.472;11.214;2023-01-24T15:58:30;1.70;99.90
25248;DHT22;13191;47.472;11.214;2023-01-24T16:00:57;1.50;99.90
25248;DHT22;13191;47.472;11.214;2023-01-24T16:03:23;1.50;99.90
25248;DHT22;13191;47.472;11.214;2023-01-24T16:05:50;1.40;99.90
25248;DHT22;13191;47.472;11.214;2023-01-24T16:08:15;1.50;99.90
25248;DHT22;13191;47.472;11.214;2023-01-24T16:10:41;1.50;99.90
25248;DHT22;13191;47.472;11.214;2023-01-24T16:13:29;1.40;99.90
25248;DHT22;13191;47.472;11.214;2023-01-24T16:15:57;1.30;99.90
25248;DHT22;13191;47.472;11.214;2023-01-24T16:18:23;1.20;99.90
25248;DHT22;13191;47.472;11.214;2023-01-24T16:20:49;1.00;99.90
25248;DHT22;13191;47.472;11.214;2023-01-24T16:23:14;0.90;99.90
25248;DHT22;13191;47.472;11.214;2023-01-24T16:25:39;0.80;99.90
25248;DHT22;13191;47.472;11.214;2023-01-24T16:28:05;0.70;99.90
25248;DHT22;13191;47.472;11.214;2023-01-24T16:30:30;0.50;99.90
25248;DHT22;13191;47.472;11.214;2023-01-24T16:32:56;0.50;99.90
25248;DHT22;13191;47.472;11.214;2023-01-24T16:35:22;0.40;99.90
25248;DHT22;13191;47.472;11.214;2023-01-24T16:37:47;0.30;99.90
25248;DHT22;13191;47.472;11.214;2023-01-24T16:40:14;0.10;99.90
25248;DHT22;13191;47.472;11.214;2023-01-24T16:42:40;0.10;99.90
25248;DHT22;13191;47.472;11.214;2023-01-24T16:45:14;0.10;99.90
25248;DHT22;13191;47.472;11.214;2023-01-24T16:47:40;-0.10;99.90
25248;DHT22;13191;47.472;11.214;2023-01-24T16:50:05;-0.20;99.90
25248;DHT22;13191;47.472;11.214;2023-01-24T16:52:31;-0.30;99.90
25248;DHT22;13191;47.472;11.214;2023-01-24T16:54:56;-0.30;99.90
25248;DHT22;13191;47.472;11.214;2023-01-24T16:57:22;-0.30;99.90
25248;DHT22;13191;47.472;11.214;2023-01-24T16:59:48;-0.30;99.90
25248;DHT22;13191;47.472;11.214;2023-01-24T17:02:13;-0.30;99.90
25248;DHT22;13191;47.472;11.214;2023-01-24T17:04:39;-0.30;99.90
25248;DHT22;13191;47.472;11.214;2023-01-24T17:07:04;-0.40;99.90
25248;DHT22;13191;47.472;11.214;2023-01-24T17:09:30;-0.50;99.90
25248;DHT22;13191;47.472;11.214;2023-01-24T17:11:56;-0.50;99.90
25248;DHT22;13191;47.472;11.214;2023-01-24T17:14:21;-0.40;99.90
25248;DHT22;13191;47.472;11.214;2023-01-24T17:16:47;-0.50;99.90
25248;DHT22;13191;47.472;11.214;2023-01-24T17:19:13;-0.50;99.90
25248;DHT22;13191;47.472;11.214;2023-01-24T17:21:38;-0.60;99.90
25248;DHT22;13191;47.472;11.214;2023-01-24T17:24:04;-0.60;99.90
25248;DHT22;13191;47.472;11.214;2023-01-24T17:26:29;-0.50;99.90
25248;DHT22;13191;47.472;11.214;2023-01-24T17:28:55;-0.60;99.90
25248;DHT22;13191;47.472;11.214;2023-01-24T17:31:20;-0.70;99.90
25248;DHT22;13191;47.472;11.214;2023-01-24T17:33:46;-0.70;99.90